createdAt,value
2023-07-03T00:00:16.425Z,19.00
2023-07-03T00:02:43.954Z,19.00
2023-07-03T00:05:12.533Z,19.00
2023-07-03T00:07:40.718Z,18.90
2023-07-03T00:10:09.274Z,18.90
2023-07-03T00:12:36.188Z,18.90
2023-07-03T00:15:03.597Z,18.90
2023-07-03T00:17:30.474Z,18.80
2023-07-03T00:19:57.397Z,18.80
2023-07-03T00:22:24.744Z,18.80
2023-07-03T00:24:51.596Z,18.70
2023-07-03T00:27:19.620Z,18.70
2023-07-03T00:29:46.640Z,18.60
2023-07-03T00:32:13.549Z,18.70
2023-07-03T00:34:40.506Z,18.70
2023-07-03T00:37:07.867Z,18.70
2023-07-03T00:39:43.912Z,18.70
2023-07-03T00:42:10.755Z,18.80
2023-07-03T00:44:37.537Z,18.70
2023-07-03T00:47:04.870Z,18.80
2023-07-03T00:49:32.896Z,18.70
2023-07-03T00:52:01.653Z,18.70
2023-07-03T00:54:28.978Z,18.60
2023-07-03T00:56:55.824Z,18.70
2023-07-03T00:59:23.273Z,18.70
2023-07-03T01:01:54.196Z,18.70
2023-07-03T01:04:26.764Z,18.70
2023-07-03T01:07:01.512Z,18.70
2023-07-03T01:09:43.401Z,18.70
2023-07-03T01:12:11.244Z,18.70
2023-07-03T01:14:40.766Z,18.60
2023-07-03T01:17:12.736Z,18.50
2023-07-03T01:19:43.202Z,18.50
2023-07-03T01:22:57.834Z,18.50
2023-07-03T01:25:26.762Z,18.50
2023-07-03T01:27:54.379Z,18.50
2023-07-03T01:30:22.470Z,18.60
2023-07-03T01:32:52.176Z,18.60
2023-07-03T01:35:20.335Z,18.60
2023-07-03T01:37:50.916Z,18.70
2023-07-03T01:40:21.797Z,18.80
2023-07-03T01:42:48.962Z,18.80
2023-07-03T01:45:16.470Z,18.80
2023-07-03T01:47:43.483Z,18.90
2023-07-03T01:50:19.396Z,18.90
2023-07-03T01:53:00.049Z,18.90
2023-07-03T01:55:40.838Z,18.90
2023-07-03T01:58:31.034Z,18.90
2023-07-03T02:01:07.927Z,18.90
2023-07-03T02:03:55.297Z,18.80
2023-07-03T02:06:26.545Z,18.80
2023-07-03T02:08:54.453Z,18.80
2023-07-03T02:11:23.644Z,18.70
2023-07-03T02:13:50.948Z,18.80
2023-07-03T02:16:17.854Z,18.70
2023-07-03T02:18:47.095Z,18.70
2023-07-03T02:21:15.323Z,18.70
2023-07-03T02:23:43.661Z,18.60
2023-07-03T02:26:15.200Z,18.60
2023-07-03T02:28:42.586Z,18.60
2023-07-03T02:31:09.526Z,18.60
2023-07-03T02:33:36.441Z,18.50
2023-07-03T02:36:04.863Z,18.50
2023-07-03T02:38:31.736Z,18.40
2023-07-03T02:40:58.510Z,18.40
2023-07-03T02:43:25.490Z,18.40
2023-07-03T02:45:52.474Z,18.40
2023-07-03T02:48:20.321Z,18.30
2023-07-03T02:50:47.163Z,18.30
2023-07-03T02:53:14.448Z,18.30
2023-07-03T02:55:41.290Z,18.30
2023-07-03T02:58:08.134Z,18.20
2023-07-03T03:00:35.041Z,18.20
2023-07-03T03:03:02.117Z,18.10
2023-07-03T03:05:29.052Z,18.00
2023-07-03T03:07:55.877Z,18.00
2023-07-03T03:10:23.757Z,18.00
2023-07-03T03:12:50.607Z,18.00
2023-07-03T03:15:19.370Z,18.00
2023-07-03T03:17:46.508Z,17.90
2023-07-03T03:20:15.151Z,17.90
2023-07-03T03:22:42.178Z,17.90
2023-07-03T03:25:09.304Z,17.80
2023-07-03T03:27:36.182Z,17.80
2023-07-03T03:30:03.153Z,17.80
2023-07-03T03:32:30.123Z,17.80
2023-07-03T03:34:57.268Z,17.80
2023-07-03T03:37:24.159Z,17.80
2023-07-03T03:39:51.236Z,17.80
2023-07-03T03:42:18.049Z,17.90
2023-07-03T03:44:44.872Z,17.90
2023-07-03T03:47:11.925Z,18.00
2023-07-03T03:49:40.555Z,18.00
2023-07-03T03:52:08.422Z,18.10
2023-07-03T03:54:35.461Z,18.10
2023-07-03T03:57:02.311Z,18.10
2023-07-03T03:59:29.069Z,18.00
2023-07-03T04:01:55.963Z,18.10
2023-07-03T04:04:22.927Z,18.10
2023-07-03T04:06:50.093Z,18.00
2023-07-03T04:09:16.902Z,18.00
2023-07-03T04:11:43.758Z,18.10
2023-07-03T04:14:10.589Z,18.10
2023-07-03T04:16:37.882Z,18.10
2023-07-03T04:19:04.770Z,18.10
2023-07-03T04:21:31.664Z,18.20
2023-07-03T04:23:58.585Z,18.30
2023-07-03T04:26:25.393Z,18.30
2023-07-03T04:28:52.309Z,18.50
2023-07-03T04:31:19.194Z,18.50
2023-07-03T04:33:46.914Z,18.60
2023-07-03T04:36:14.235Z,18.60
2023-07-03T04:38:43.209Z,18.70
2023-07-03T04:41:10.463Z,18.70
2023-07-03T04:43:37.369Z,18.80
2023-07-03T04:46:05.133Z,18.90
2023-07-03T04:48:32.673Z,19.00
2023-07-03T04:51:00.106Z,19.00
2023-07-03T04:53:27.210Z,19.10
2023-07-03T04:55:54.429Z,19.20
2023-07-03T04:58:22.859Z,19.10
2023-07-03T05:00:50.118Z,19.10
2023-07-03T05:03:17.411Z,19.10
2023-07-03T05:05:44.454Z,19.20
2023-07-03T05:08:11.445Z,19.30
2023-07-03T05:10:38.300Z,19.40
2023-07-03T05:13:05.269Z,19.50
2023-07-03T05:15:32.552Z,19.50
2023-07-03T05:17:59.629Z,19.50
2023-07-03T05:20:27.336Z,19.60
2023-07-03T05:22:54.583Z,19.70
2023-07-03T05:25:21.533Z,19.70
2023-07-03T05:27:49.485Z,19.80
2023-07-03T05:30:16.512Z,19.80
2023-07-03T05:32:43.627Z,19.90
2023-07-03T05:35:11.880Z,20.00
2023-07-03T05:37:38.911Z,20.10
2023-07-03T05:40:08.376Z,20.10
2023-07-03T05:42:36.384Z,20.20
2023-07-03T05:45:04.763Z,20.30
2023-07-03T05:47:31.778Z,20.30
2023-07-03T05:49:59.009Z,20.40
2023-07-03T05:52:26.385Z,20.50
2023-07-03T05:54:53.407Z,20.50
2023-07-03T05:57:20.350Z,20.60
2023-07-03T05:59:48.817Z,20.70
2023-07-03T06:02:16.663Z,20.70
2023-07-03T06:04:43.563Z,20.80
2023-07-03T06:07:11.170Z,20.90
2023-07-03T06:09:38.827Z,20.90
2023-07-03T06:12:06.298Z,20.90
2023-07-03T06:14:35.337Z,21.10
2023-07-03T06:17:02.806Z,21.30
2023-07-03T06:19:30.634Z,21.40
2023-07-03T06:21:58.060Z,21.60
2023-07-03T06:24:25.354Z,21.80
2023-07-03T06:26:53.649Z,21.90
2023-07-03T06:29:21.066Z,21.90
2023-07-03T06:31:48.716Z,21.90
2023-07-03T06:34:16.277Z,21.80
2023-07-03T06:36:43.327Z,21.80
2023-07-03T06:39:10.799Z,21.90
2023-07-03T06:41:37.953Z,22.00
2023-07-03T06:44:06.330Z,22.10
2023-07-03T06:46:34.637Z,22.20
2023-07-03T06:49:01.730Z,22.30
2023-07-03T06:51:28.566Z,22.70
2023-07-03T06:53:55.454Z,22.90
2023-07-03T06:56:22.378Z,23.10
2023-07-03T06:58:50.263Z,23.40
2023-07-03T07:01:19.335Z,23.60
2023-07-03T07:03:46.852Z,23.90
2023-07-03T07:06:25.742Z,24.30
2023-07-03T07:08:53.125Z,24.60
2023-07-03T07:11:23.168Z,24.80
2023-07-03T07:13:52.252Z,25.20
2023-07-03T07:16:23.109Z,25.30
2023-07-03T07:18:53.026Z,25.30
2023-07-03T07:21:20.192Z,25.30
2023-07-03T07:23:57.219Z,25.40
2023-07-03T07:26:28.488Z,25.60
2023-07-03T07:28:56.158Z,25.80
2023-07-03T07:31:28.209Z,26.20
2023-07-03T07:33:55.705Z,26.50
2023-07-03T07:36:26.218Z,26.60
2023-07-03T07:38:56.569Z,26.80
2023-07-03T07:41:26.616Z,27.10
2023-07-03T07:43:55.169Z,27.40
2023-07-03T07:46:26.650Z,27.30
2023-07-03T07:48:54.020Z,27.30
2023-07-03T07:51:20.974Z,27.30
2023-07-03T07:53:47.836Z,27.30
2023-07-03T07:56:17.993Z,27.20
2023-07-03T07:58:44.844Z,27.00
2023-07-03T08:01:13.266Z,26.60
2023-07-03T08:03:40.985Z,26.30
2023-07-03T08:06:09.501Z,25.80
2023-07-03T08:08:37.937Z,25.50
2023-07-03T08:11:11.502Z,25.20
2023-07-03T08:13:40.444Z,25.10
2023-07-03T08:16:08.266Z,25.00
2023-07-03T08:18:35.219Z,25.10
2023-07-03T08:21:02.612Z,25.20
2023-07-03T08:23:31.168Z,25.50
2023-07-03T08:26:00.298Z,26.00
2023-07-03T08:28:27.848Z,26.40
2023-07-03T08:30:54.977Z,26.30
2023-07-03T08:33:21.972Z,26.30
2023-07-03T08:38:18.935Z,26.10
2023-07-03T08:40:46.046Z,25.80
2023-07-03T08:43:17.540Z,25.60
2023-07-03T08:45:47.724Z,25.50
2023-07-03T08:48:36.092Z,25.40
2023-07-03T08:51:07.885Z,25.10
2023-07-03T08:53:40.997Z,24.90
2023-07-03T08:56:18.799Z,24.70
2023-07-03T08:58:46.267Z,24.40
2023-07-03T09:01:47.433Z,24.40
2023-07-03T09:04:26.588Z,24.60
2023-07-03T09:07:06.834Z,24.80
2023-07-03T09:09:36.937Z,25.10
2023-07-03T09:12:08.338Z,25.10
2023-07-03T09:14:44.814Z,25.20
2023-07-03T09:17:13.526Z,25.50
2023-07-03T09:19:48.254Z,25.50
2023-07-03T09:22:33.654Z,25.80
2023-07-03T09:25:04.943Z,26.10
2023-07-03T09:27:32.685Z,26.50
2023-07-03T09:30:04.275Z,26.70
2023-07-03T09:32:32.846Z,26.70
2023-07-03T09:35:02.859Z,27.00
2023-07-03T09:37:30.022Z,26.40
2023-07-03T09:39:57.300Z,25.90
2023-07-03T09:42:24.605Z,25.90
2023-07-03T09:44:51.915Z,25.80
2023-07-03T09:47:23.545Z,25.80
2023-07-03T09:49:51.102Z,26.00
2023-07-03T09:52:20.164Z,26.00
2023-07-03T09:54:48.649Z,26.10
2023-07-03T09:57:27.247Z,26.20
2023-07-03T10:00:20.060Z,26.40
2023-07-03T10:07:50.162Z,28.00
2023-07-03T10:13:03.656Z,28.50
2023-07-03T10:15:38.640Z,28.00
2023-07-03T10:18:15.037Z,27.60
2023-07-03T10:20:45.545Z,27.00
2023-07-03T10:23:19.299Z,26.60
2023-07-03T10:26:06.761Z,26.60
2023-07-03T10:28:40.499Z,26.60
2023-07-03T10:31:12.704Z,26.80
2023-07-03T10:33:45.864Z,27.60
2023-07-03T10:36:19.937Z,28.10
2023-07-03T10:39:00.985Z,28.40
2023-07-03T10:41:41.617Z,28.40
2023-07-03T10:44:17.657Z,28.00
2023-07-03T10:46:51.690Z,27.80
2023-07-03T10:49:39.142Z,27.50
2023-07-03T10:52:31.159Z,27.20
2023-07-03T10:55:34.790Z,26.80
2023-07-03T10:58:11.181Z,26.30
2023-07-03T11:01:23.304Z,26.40
2023-07-03T11:04:25.995Z,26.30
2023-07-03T11:07:05.211Z,26.20
2023-07-03T11:09:36.166Z,26.30
2023-07-03T11:12:22.250Z,26.20
2023-07-03T11:15:16.898Z,26.10
2023-07-03T11:24:34.420Z,26.30
2023-07-03T11:29:43.209Z,26.30
2023-07-03T11:32:11.070Z,26.40
2023-07-03T11:40:39.156Z,26.60
2023-07-03T11:43:27.838Z,26.40
2023-07-03T11:45:58.037Z,26.30
2023-07-03T11:48:32.698Z,26.20
2023-07-03T11:51:15.248Z,26.20
2023-07-03T11:53:50.937Z,26.10
2023-07-03T11:56:43.186Z,26.00
2023-07-03T11:59:32.351Z,25.70
2023-07-03T12:02:11.803Z,25.80
2023-07-03T12:04:48.864Z,25.90
2023-07-03T12:07:20.100Z,25.90
2023-07-03T12:09:48.690Z,25.90
2023-07-03T12:12:22.022Z,26.00
2023-07-03T12:15:03.274Z,26.10
2023-07-03T12:17:38.131Z,26.10
2023-07-03T12:20:14.695Z,25.80
2023-07-03T12:22:46.317Z,25.60
2023-07-03T12:25:22.863Z,25.50
2023-07-03T12:27:52.150Z,25.50
2023-07-03T12:30:25.863Z,25.60
2023-07-03T12:32:54.862Z,25.60
2023-07-03T12:35:32.533Z,25.60
2023-07-03T12:38:18.388Z,25.60
2023-07-03T12:40:47.603Z,25.50
2023-07-03T12:43:19.811Z,25.60
2023-07-03T12:45:55.596Z,25.60
2023-07-03T12:48:27.933Z,25.60
2023-07-03T12:50:57.749Z,25.50
2023-07-03T12:53:30.753Z,25.50
2023-07-03T12:56:03.523Z,25.50
2023-07-03T12:58:31.396Z,25.60
2023-07-03T13:01:07.872Z,25.70
2023-07-03T13:28:24.181Z,26.20
2023-07-03T13:31:42.736Z,26.20
2023-07-03T13:34:22.152Z,26.20
2023-07-03T13:36:58.721Z,26.20
2023-07-03T13:39:27.511Z,26.30
2023-07-03T13:41:57.463Z,26.20
2023-07-03T13:44:26.131Z,26.10
2023-07-03T13:46:56.785Z,26.10
2023-07-03T13:49:23.843Z,26.00
2023-07-03T13:51:52.652Z,26.00
2023-07-03T13:54:20.461Z,26.20
2023-07-03T13:56:47.507Z,26.20
2023-07-03T13:59:14.795Z,26.30
2023-07-03T14:01:45.085Z,26.30
2023-07-03T14:04:13.307Z,26.40
2023-07-03T14:06:41.458Z,26.20
2023-07-03T14:09:12.740Z,26.00
2023-07-03T14:11:43.052Z,25.90
2023-07-03T14:14:12.281Z,25.80
2023-07-03T14:16:39.495Z,25.80
2023-07-03T14:19:07.735Z,25.80
2023-07-03T14:21:35.784Z,25.60
2023-07-03T14:24:02.738Z,25.50
2023-07-03T14:26:30.597Z,25.50
2023-07-03T14:28:58.137Z,25.40
2023-07-03T14:31:50.794Z,25.30
2023-07-03T14:34:21.356Z,25.20
2023-07-03T14:36:48.614Z,25.00
2023-07-03T14:39:15.941Z,24.90
2023-07-03T14:41:43.359Z,24.90
2023-07-03T14:44:10.584Z,24.90
2023-07-03T14:46:37.856Z,25.00
2023-07-03T14:49:05.360Z,25.10
2023-07-03T14:51:32.962Z,25.10
2023-07-03T14:53:59.883Z,25.00
2023-07-03T14:56:27.292Z,25.00
2023-07-03T14:58:54.882Z,25.00
2023-07-03T15:01:22.166Z,24.90
2023-07-03T15:03:49.236Z,25.00
2023-07-03T15:06:16.387Z,25.10
2023-07-03T15:08:43.586Z,25.20
2023-07-03T15:11:19.645Z,25.50
2023-07-03T15:13:47.784Z,25.50
2023-07-03T15:16:16.173Z,25.60
2023-07-03T15:18:43.525Z,25.50
2023-07-03T15:21:10.621Z,25.40
2023-07-03T15:23:37.717Z,25.40
2023-07-03T15:26:08.690Z,25.40
2023-07-03T15:28:45.650Z,25.30
2023-07-03T15:31:14.051Z,25.20
2023-07-03T15:34:06.120Z,25.20
2023-07-03T15:36:47.875Z,25.20
2023-07-03T15:39:14.962Z,25.00
2023-07-03T15:41:42.092Z,24.90
2023-07-03T15:44:16.292Z,24.90
2023-07-03T15:49:31.296Z,25.00
2023-07-03T15:51:59.596Z,25.00
2023-07-03T15:54:26.708Z,25.10
2023-07-03T15:56:54.675Z,25.00
2023-07-03T15:59:21.618Z,25.00
2023-07-03T16:01:50.701Z,25.00
2023-07-03T16:04:17.633Z,25.00
2023-07-03T16:06:44.667Z,25.10
2023-07-03T16:09:11.558Z,25.10
2023-07-03T16:11:38.628Z,25.00
2023-07-03T16:14:05.736Z,25.10
2023-07-03T16:16:32.919Z,25.00
2023-07-03T16:19:01.692Z,25.00
2023-07-03T16:21:34.759Z,24.90
2023-07-03T16:24:04.172Z,24.90
2023-07-03T16:26:32.637Z,24.90
2023-07-03T16:28:59.942Z,24.90
2023-07-03T16:31:31.287Z,24.90
2023-07-03T16:34:00.858Z,25.00
2023-07-03T16:36:30.966Z,25.10
2023-07-03T16:39:06.286Z,25.10
2023-07-03T16:41:39.725Z,25.10
2023-07-03T16:44:07.131Z,25.10
2023-07-03T16:46:37.007Z,25.10
2023-07-03T16:49:13.785Z,25.10
2023-07-03T16:51:40.928Z,25.20
2023-07-03T16:54:08.375Z,25.10
2023-07-03T16:56:36.278Z,25.00
2023-07-03T16:59:03.721Z,25.10
2023-07-03T17:01:31.748Z,25.10
2023-07-03T17:03:59.204Z,25.00
2023-07-03T17:06:32.592Z,25.00
2023-07-03T17:09:06.604Z,24.90
2023-07-03T17:11:35.140Z,24.90
2023-07-03T17:14:02.522Z,24.80
2023-07-03T17:16:30.244Z,24.80
2023-07-03T17:18:57.673Z,24.70
2023-07-03T17:21:24.928Z,24.70
2023-07-03T17:23:59.051Z,24.60
2023-07-03T17:26:26.513Z,24.50
2023-07-03T17:28:53.664Z,24.50
2023-07-03T17:31:25.015Z,24.40
2023-07-03T17:33:55.804Z,24.40
2023-07-03T17:36:25.033Z,24.40
2023-07-03T17:38:53.008Z,24.40
2023-07-03T17:41:25.439Z,24.40
2023-07-03T17:43:52.758Z,24.40
2023-07-03T17:46:19.912Z,24.40
2023-07-03T17:48:47.192Z,24.30
2023-07-03T17:51:14.315Z,24.20
2023-07-03T17:53:41.941Z,24.20
2023-07-03T17:56:09.207Z,24.10
2023-07-03T17:58:36.379Z,24.10
2023-07-03T18:01:03.981Z,24.00
2023-07-03T18:03:34.989Z,23.90
2023-07-03T18:06:02.530Z,23.90
